Time;durP1;ratioP1;P1;durP2;ratioP2;P2;SDS_P1;SDS_P2;PMS_P1;PMS_P2;Temp;Humidity;BMP_temperature;BMP_pressure;BME280_temperature;BME280_humidity;BME280_pressure;Samples;Min_cycle;Max_cycle;Signal;HPM_P1;HPM_P2
2023/04/27 00:00:24;;;;;;;;;;;;;;;3.95;100.00;102013.22;5189394;28;19924;-73
2023/04/27 00:02:55;;;;;;;;;;;;;;;3.90;100.00;102014.34;5202451;28;19913;-73
2023/04/27 00:05:26;;;;;;;;;;;;;;;3.73;100.00;102009.25;5203479;28;19988;-73
2023/04/27 00:07:56;;;;;;;;;;;;;;;3.57;100.00;102009.31;5198336;28;19933;-73
2023/04/27 00:10:26;;;;;;;;;;;;;;;3.49;100.00;102006.25;5182339;28;19918;-73
2023/04/27 00:12:57;;;;;;;;;;;;;;;3.41;100.00;102005.84;5182587;28;19929;-73
2023/04/27 00:15:28;;;;;;;;;;;;;;;3.38;100.00;102006.91;5193828;28;20010;-73
2023/04/27 00:17:58;;;;;;;;;;;;;;;3.39;100.00;102002.47;5200745;28;19924;-73
2023/04/27 00:20:28;;;;;;;;;;;;;;;3.37;100.00;102009.66;5202334;28;20377;-73
2023/04/27 00:22:59;;;;;;;;;;;;;;;3.36;100.00;102006.16;5203269;28;20377;-73
2023/04/27 00:25:29;;;;;;;;;;;;;;;3.35;100.00;102016.84;5189689;28;19968;-73
2023/04/27 00:27:59;;;;;;;;;;;;;;;3.34;100.00;102013.34;5198049;28;19914;-73
2023/04/27 00:30:30;;;;;;;;;;;;;;;3.31;100.00;102021.50;5198390;28;19913;-73
2023/04/27 00:33:00;;;;;;;;;;;;;;;3.27;100.00;102012.00;5194518;28;19917;-73
2023/04/27 00:35:31;;;;;;;;;;;;;;;3.25;100.00;102013.88;5200590;28;19917;-73
2023/04/27 00:38:02;;;;;;;;;;;;;;;3.28;100.00;102019.00;5201506;28;20424;-73
2023/04/27 00:40:32;;;;;;;;;;;;;;;3.29;100.00;102009.25;5193612;28;20274;-73
2023/04/27 00:43:02;;;;;;;;;;;;;;;3.22;100.00;102008.78;5207219;28;20309;-73
2023/04/27 00:45:38;;;;;;;;;;;;;;;3.17;100.00;102008.19;5206752;28;19933;-73
2023/04/27 00:48:09;;;;;;;;;;;;;;;3.13;100.00;102009.31;5204414;28;20332;-73
2023/04/27 00:50:40;;;;;;;;;;;;;;;3.13;100.00;102008.47;5186613;28;19952;-73
2023/04/27 00:53:10;;;;;;;;;;;;;;;3.09;100.00;102013.94;5203164;28;20388;-73
2023/04/27 00:55:41;;;;;;;;;;;;;;;3.13;100.00;102021.72;5195892;28;19920;-73
2023/04/27 00:58:11;;;;;;;;;;;;;;;3.10;100.00;102017.44;5205273;28;19917;-73
2023/04/27 01:00:42;;;;;;;;;;;;;;;3.13;100.00;102011.97;5192845;28;19913;-73
2023/04/27 01:03:12;;;;;;;;;;;;;;;3.18;100.00;102009.91;5186140;28;19921;-73
2023/04/27 01:05:42;;;;;;;;;;;;;;;3.21;100.00;102006.19;5198437;28;19913;-73
2023/04/27 01:08:13;;;;;;;;;;;;;;;3.22;100.00;102008.78;5205414;28;19956;-73
2023/04/27 01:10:44;;;;;;;;;;;;;;;3.20;100.00;102005.34;5193137;28;20469;-73
2023/04/27 01:13:14;;;;;;;;;;;;;;;3.20;100.00;101997.38;5206298;28;19928;-73
2023/04/27 01:15:44;;;;;;;;;;;;;;;3.18;100.00;101995.78;5206251;28;20111;-73
2023/04/27 01:18:15;;;;;;;;;;;;;;;3.17;100.00;101996.72;5196803;28;19917;-73
2023/04/27 01:20:56;;;;;;;;;;;;;;;3.12;100.00;101994.34;5185077;28;19979;-73
2023/04/27 01:23:26;;;;;;;;;;;;;;;3.10;100.00;101993.56;5185693;28;19918;-73
2023/04/27 01:25:56;;;;;;;;;;;;;;;3.06;100.00;101994.69;5203512;28;19921;-73
2023/04/27 01:28:47;;;;;;;;;;;;;;;3.03;100.00;101997.53;5204542;28;19935;-73
2023/04/27 01:31:35;;;;;;;;;;;;;;;2.98;100.00;101994.31;5193968;28;19922;-73
2023/04/27 01:34:07;;;;;;;;;;;;;;;2.93;100.00;101988.41;5202685;28;19913;-73
2023/04/27 01:36:37;;;;;;;;;;;;;;;2.89;100.00;101992.19;5204807;28;20390;-73
2023/04/27 01:39:08;;;;;;;;;;;;;;;2.84;100.00;101990.63;5205712;28;20520;-73
2023/04/27 01:41:39;;;;;;;;;;;;;;;2.80;100.00;101990.91;5205311;28;19913;-73
2023/04/27 01:44:10;;;;;;;;;;;;;;;2.77;100.00;101985.78;5205648;28;19963;-73
2023/04/27 01:46:41;;;;;;;;;;;;;;;2.76;100.00;101986.72;5189118;28;19917;-73
2023/04/27 01:49:11;;;;;;;;;;;;;;;2.74;100.00;101976.22;5185352;28;19920;-73
2023/04/27 01:51:42;;;;;;;;;;;;;;;2.71;100.00;101976.41;5192095;28;19975;-73
2023/04/27 01:54:12;;;;;;;;;;;;;;;2.71;100.00;101980.81;5204583;28;19921;-73
2023/04/27 01:56:49;;;;;;;;;;;;;;;2.68;100.00;101981.88;5199360;28;19917;-73
2023/04/27 01:59:19;;;;;;;;;;;;;;;2.67;100.00;101982.81;5195118;28;19971;-73
2023/04/27 02:01:50;;;;;;;;;;;;;;;2.65;100.00;101986.47;5203062;28;19913;-73
2023/04/27 02:04:21;;;;;;;;;;;;;;;2.63;100.00;101981.28;5205207;28;20004;-73
2023/04/27 02:06:51;;;;;;;;;;;;;;;2.64;100.00;101971.53;5196234;28;19920;-73
2023/04/27 02:09:27;;;;;;;;;;;;;;;2.61;100.00;101967.28;5184174;28;19924;-73
2023/04/27 02:11:57;;;;;;;;;;;;;;;2.65;100.00;101971.44;5184515;28;19909;-73
2023/04/27 02:14:28;;;;;;;;;;;;;;;2.69;100.00;101980.06;5200843;28;19919;-73
2023/04/27 02:16:58;;;;;;;;;;;;;;;2.69;100.00;101967.66;5203922;28;19914;-73
2023/04/27 02:19:29;;;;;;;;;;;;;;;2.71;100.00;101975.53;5186015;28;19955;-73
2023/04/27 02:22:00;;;;;;;;;;;;;;;2.72;100.00;101985.22;5183986;28;19968;-73
2023/04/27 02:24:31;;;;;;;;;;;;;;;2.71;100.00;101973.75;5191035;28;19913;-73
2023/04/27 02:27:02;;;;;;;;;;;;;;;2.70;100.00;101979.97;5203011;28;20349;-73
2023/04/27 02:29:36;;;;;;;;;;;;;;;2.68;100.00;101973.91;5193002;28;19914;-73
2023/04/27 02:32:06;;;;;;;;;;;;;;;2.66;100.00;101978.47;5206681;28;19913;-73
2023/04/27 02:34:37;;;;;;;;;;;;;;;2.66;100.00;101974.94;5205163;28;19931;-72
2023/04/27 02:37:07;;;;;;;;;;;;;;;2.65;100.00;101962.63;5203818;28;19952;-73
2023/04/27 02:39:37;;;;;;;;;;;;;;;2.65;100.00;101966.13;5201764;28;20004;-73
2023/04/27 02:42:08;;;;;;;;;;;;;;;2.65;100.00;101967.94;5185695;28;19920;-73
2023/04/27 02:44:39;;;;;;;;;;;;;;;2.62;100.00;101963.69;5184557;28;19996;-73
2023/04/27 02:47:10;;;;;;;;;;;;;;;2.58;100.00;101959.50;5182480;28;19925;-73
2023/04/27 02:49:40;;;;;;;;;;;;;;;2.57;100.00;101961.28;5183944;28;19914;-73
2023/04/27 02:52:10;;;;;;;;;;;;;;;2.58;100.00;101967.44;5191072;28;19913;-73
2023/04/27 02:54:41;;;;;;;;;;;;;;;2.56;100.00;101962.25;5184446;28;19913;-73
2023/04/27 02:57:11;;;;;;;;;;;;;;;2.56;100.00;101966.66;5203170;28;20328;-73
2023/04/27 02:59:41;;;;;;;;;;;;;;;2.53;100.00;101973.00;5202882;28;20306;-73
2023/04/27 03:02:12;;;;;;;;;;;;;;;2.51;100.00;101979.31;5195358;28;20512;-73
2023/04/27 03:04:42;;;;;;;;;;;;;;;2.45;100.00;101977.84;5199575;28;19967;-73
2023/04/27 03:07:12;;;;;;;;;;;;;;;2.42;100.00;101987.78;5193019;28;19960;-73
2023/04/27 03:09:43;;;;;;;;;;;;;;;2.34;100.00;101983.75;5181866;28;19918;-73
2023/04/27 03:12:13;;;;;;;;;;;;;;;2.28;100.00;101976.16;5183523;28;19917;-73
2023/04/27 03:14:43;;;;;;;;;;;;;;;2.23;100.00;101983.50;5183779;28;19956;-73
2023/04/27 03:17:14;;;;;;;;;;;;;;;2.21;100.00;101971.28;5194075;28;19924;-73
2023/04/27 03:19:46;;;;;;;;;;;;;;;2.21;100.00;101971.28;5190819;28;20680;-73
2023/04/27 03:22:16;;;;;;;;;;;;;;;2.20;100.00;101986.31;5203149;28;20389;-73
2023/04/27 03:24:46;;;;;;;;;;;;;;;2.16;100.00;101995.41;5193970;28;19913;-73
2023/04/27 03:27:17;;;;;;;;;;;;;;;2.13;100.00;101990.25;5182257;28;19913;-73
2023/04/27 03:29:50;;;;;;;;;;;;;;;2.11;100.00;101989.50;5191813;28;19952;-73
2023/04/27 03:32:20;;;;;;;;;;;;;;;2.09;100.00;101991.34;5184714;28;19917;-73
2023/04/27 03:34:52;;;;;;;;;;;;;;;2.08;100.00;101987.00;5183010;28;20409;-73
2023/04/27 03:37:22;;;;;;;;;;;;;;;2.05;100.00;101989.81;5181914;28;20410;-73
2023/04/27 03:39:53;;;;;;;;;;;;;;;1.99;100.00;101992.78;5182937;28;19917;-73
2023/04/27 03:42:23;;;;;;;;;;;;;;;1.95;100.00;101992.09;5202630;28;19948;-73
2023/04/27 03:44:53;;;;;;;;;;;;;;;1.90;100.00;101993.28;5203502;28;19953;-73
2023/04/27 03:47:24;;;;;;;;;;;;;;;1.84;100.00;102002.41;5202016;28;20385;-73
2023/04/27 03:49:54;;;;;;;;;;;;;;;1.81;100.00;101995.50;5203035;28;19928;-73
2023/04/27 03:52:25;;;;;;;;;;;;;;;1.77;100.00;101990.44;5187426;28;19944;-73
2023/04/27 03:54:55;;;;;;;;;;;;;;;1.73;100.00;102002.97;5185840;28;19921;-73
2023/04/27 03:57:26;;;;;;;;;;;;;;;1.71;100.00;101996.94;5200299;28;19914;-73
2023/04/27 03:59:56;;;;;;;;;;;;;;;1.70;100.00;101999.63;5202685;28;19920;-73
2023/04/27 04:02:26;;;;;;;;;;;;;;;1.72;100.00;101997.78;5203394;28;19920;-73
2023/04/27 04:04:57;;;;;;;;;;;;;;;1.72;100.00;102000.44;5185453;28;19914;-73
2023/04/27 04:07:27;;;;;;;;;;;;;;;1.73;100.00;101997.69;5180503;28;19968;-73
2023/04/27 04:09:57;;;;;;;;;;;;;;;1.88;100.00;101992.53;5195822;28;20314;-73
2023/04/27 04:12:28;;;;;;;;;;;;;;;1.92;100.00;101991.44;5182413;28;19957;-73
2023/04/27 04:14:58;;;;;;;;;;;;;;;1.93;100.00;101996.63;5192648;28;19913;-73
2023/04/27 04:17:29;;;;;;;;;;;;;;;1.94;100.00;101990.38;5206255;28;19913;-73
2023/04/27 04:20:00;;;;;;;;;;;;;;;1.96;100.00;101988.53;5207181;28;19913;-73
2023/04/27 04:22:31;;;;;;;;;;;;;;;1.95;100.00;101991.25;5203498;28;20393;-73
2023/04/27 04:25:02;;;;;;;;;;;;;;;1.91;100.00;101997.63;5186942;28;19913;-73
2023/04/27 04:27:32;;;;;;;;;;;;;;;1.85;100.00;102000.59;5184997;28;19920;-73
2023/04/27 04:30:05;;;;;;;;;;;;;;;1.82;100.00;102009.59;5204125;28;19938;-73
2023/04/27 04:32:44;;;;;;;;;;;;;;;1.81;100.00;102000.78;5206924;28;19921;-73
2023/04/27 04:35:53;;;;;;;;;;;;;;;1.83;100.00;102005.16;5193159;28;19924;-73
2023/04/27 04:38:24;;;;;;;;;;;;;;;1.86;100.00;102012.91;5206190;28;19921;-73
2023/04/27 04:40:54;;;;;;;;;;;;;;;1.87;100.00;102006.69;5205375;28;20064;-73
2023/04/27 04:43:24;;;;;;;;;;;;;;;1.90;100.00;102003.88;5205169;28;19917;-73
2023/04/27 04:45:55;;;;;;;;;;;;;;;1.90;100.00;102014.44;5194013;28;20301;-73
2023/04/27 04:48:25;;;;;;;;;;;;;;;1.90;100.00;102012.66;5192812;28;19994;-73
2023/04/27 04:50:56;;;;;;;;;;;;;;;1.89;100.00;102013.59;5203934;28;19913;-73
2023/04/27 04:53:26;;;;;;;;;;;;;;;1.89;100.00;102018.03;5186275;28;20343;-73
2023/04/27 04:55:57;;;;;;;;;;;;;;;1.89;100.00;102024.19;5186031;28;19952;-73
2023/04/27 04:58:27;;;;;;;;;;;;;;;1.92;100.00;102023.19;5203864;28;19924;-73
2023/04/27 05:00:57;;;;;;;;;;;;;;;1.95;100.00;102017.72;5193140;28;19914;-73
2023/04/27 05:03:28;;;;;;;;;;;;;;;1.97;100.00;102014.06;5198165;28;19917;-73
2023/04/27 05:05:58;;;;;;;;;;;;;;;2.00;100.00;102020.97;5210527;28;19925;-73
2023/04/27 05:08:28;;;;;;;;;;;;;;;2.04;100.00;102022.50;5207820;28;19913;-73
2023/04/27 05:10:59;;;;;;;;;;;;;;;2.08;100.00;102030.22;5207421;28;19913;-74
2023/04/27 05:13:29;;;;;;;;;;;;;;;2.14;100.00;102026.38;5207419;28;20016;-73
2023/04/27 05:16:02;;;;;;;;;;;;;;;2.21;100.00;102034.81;5206724;28;19919;-73
2023/04/27 05:18:33;;;;;;;;;;;;;;;2.30;100.00;102032.53;5193659;28;20352;-73
2023/04/27 05:21:04;;;;;;;;;;;;;;;2.38;100.00;102034.78;5185232;28;19971;-73
2023/04/27 05:23:34;;;;;;;;;;;;;;;2.48;100.00;102041.28;5186252;28;19919;-73
2023/04/27 05:26:22;;;;;;;;;;;;;;;2.57;100.00;102032.81;5204489;28;19940;-73
2023/04/27 05:28:52;;;;;;;;;;;;;;;2.69;100.00;102028.63;5206049;28;19913;-73
2023/04/27 05:31:23;;;;;;;;;;;;;;;2.80;100.00;102036.81;5205786;28;19937;-73
2023/04/27 05:33:53;;;;;;;;;;;;;;;2.94;100.00;102035.19;5205788;28;20407;-73
2023/04/27 05:36:24;;;;;;;;;;;;;;;3.06;100.00;102047.72;5205026;28;19995;-73
2023/04/27 05:38:54;;;;;;;;;;;;;;;3.20;100.00;102042.47;5205608;28;19939;-74
2023/04/27 05:41:25;;;;;;;;;;;;;;;3.32;100.00;102044.41;5204713;28;19952;-73
2023/04/27 05:43:55;;;;;;;;;;;;;;;3.49;100.00;102042.56;5205673;28;19913;-73
2023/04/27 05:46:26;;;;;;;;;;;;;;;3.66;100.00;102041.53;5204743;28;19913;-74
2023/04/27 05:48:56;;;;;;;;;;;;;;;3.90;100.00;102051.53;5204962;28;19913;-74
2023/04/27 05:51:27;;;;;;;;;;;;;;;4.37;100.00;102053.06;5201931;28;19952;-73
2023/04/27 05:54:00;;;;;;;;;;;;;;;4.96;100.00;102047.47;5185067;28;19914;-74
2023/04/27 05:56:30;;;;;;;;;;;;;;;5.48;100.00;102051.16;5185702;28;19914;-73
2023/04/27 05:59:02;;;;;;;;;;;;;;;5.87;100.00;102048.41;5205668;28;19986;-74
2023/04/27 06:01:32;;;;;;;;;;;;;;;6.30;100.00;102042.75;5200314;28;20000;-73
2023/04/27 06:04:03;;;;;;;;;;;;;;;6.93;100.00;102036.38;5185450;28;20011;-74
2023/04/27 06:06:34;;;;;;;;;;;;;;;7.49;100.00;102033.06;5184507;28;19914;-74
2023/04/27 06:09:04;;;;;;;;;;;;;;;8.07;100.00;102035.69;5185152;28;20574;-74
2023/04/27 06:11:36;;;;;;;;;;;;;;;8.47;100.00;102036.06;5196371;28;20548;-74
2023/04/27 06:14:06;;;;;;;;;;;;;;;8.74;100.00;102038.34;5182148;28;19910;-74
2023/04/27 06:16:37;;;;;;;;;;;;;;;8.86;100.00;102042.69;5202059;28;20073;-74
2023/04/27 06:19:08;;;;;;;;;;;;;;;8.79;100.00;102039.69;5187486;28;19917;-74
2023/04/27 06:21:38;;;;;;;;;;;;;;;8.83;100.00;102034.91;5180998;28;19979;-74
2023/04/27 06:24:08;;;;;;;;;;;;;;;8.76;100.00;102025.69;5180863;28;19913;-74
2023/04/27 06:26:39;;;;;;;;;;;;;;;8.75;100.00;102037.38;5180730;28;19960;-74
2023/04/27 06:29:09;;;;;;;;;;;;;;;9.11;100.00;102038.00;5189101;28;20012;-74
2023/04/27 06:31:40;;;;;;;;;;;;;;;9.29;100.00;102036.47;5188033;28;19993;-74
2023/04/27 06:34:10;;;;;;;;;;;;;;;9.69;100.00;102041.09;5181124;28;20846;-74
2023/04/27 06:36:40;;;;;;;;;;;;;;;9.76;100.00;102034.25;5185496;28;20321;-74
2023/04/27 06:39:11;;;;;;;;;;;;;;;9.60;100.00;102035.56;5187896;28;19925;-74
2023/04/27 06:41:41;;;;;;;;;;;;;;;9.80;100.00;102043.72;5188492;28;19921;-74
2023/04/27 06:44:12;;;;;;;;;;;;;;;9.80;100.00;102041.88;5187253;28;20005;-74
2023/04/27 06:46:42;;;;;;;;;;;;;;;9.95;100.00;102037.03;5188797;28;20370;-74
2023/04/27 06:49:12;;;;;;;;;;;;;;;9.93;100.00;102027.41;5181860;28;19921;-74
2023/04/27 06:51:43;;;;;;;;;;;;;;;10.00;100.00;102040.16;5184484;28;19928;-74
2023/04/27 06:54:13;;;;;;;;;;;;;;;10.35;100.00;102030.88;5186381;28;20512;-74
2023/04/27 06:56:44;;;;;;;;;;;;;;;10.12;100.00;102025.66;5186446;28;19922;-74
2023/04/27 06:59:14;;;;;;;;;;;;;;;9.64;100.00;102029.91;5190386;28;19932;-74
2023/04/27 07:01:45;;;;;;;;;;;;;;;9.58;100.00;102029.47;5188080;28;19921;-74
2023/04/27 07:04:15;;;;;;;;;;;;;;;10.10;100.00;102032.16;5188383;28;19968;-74
2023/04/27 07:06:46;;;;;;;;;;;;;;;10.39;100.00;102037.66;5185964;28;20271;-74
2023/04/27 07:09:16;;;;;;;;;;;;;;;10.31;100.00;102032.97;5182575;28;19996;-75
2023/04/27 07:11:46;;;;;;;;;;;;;;;10.28;100.00;102041.28;5185258;28;19925;-73
2023/04/27 07:14:17;;;;;;;;;;;;;;;10.48;100.00;102036.84;5186777;28;19917;-74
2023/04/27 07:16:47;;;;;;;;;;;;;;;11.13;100.00;102027.34;5184746;28;19917;-74
2023/04/27 07:19:17;;;;;;;;;;;;;;;11.57;100.00;102019.69;5187704;28;19925;-74
2023/04/27 07:21:48;;;;;;;;;;;;;;;11.80;100.00;102019.34;5183620;28;19925;-74
2023/04/27 07:24:19;;;;;;;;;;;;;;;11.82;100.00;102017.38;5181066;28;20263;-75
2023/04/27 07:26:50;;;;;;;;;;;;;;;12.21;100.00;102017.25;5183910;28;20000;-74
2023/04/27 07:29:21;;;;;;;;;;;;;;;12.61;100.00;102019.59;5194252;28;20039;-74
2023/04/27 07:31:51;;;;;;;;;;;;;;;12.59;100.00;102017.03;5188858;28;20006;-74
2023/04/27 07:34:22;;;;;;;;;;;;;;;12.76;100.00;102022.63;5184704;28;20393;-74
2023/04/27 07:36:53;;;;;;;;;;;;;;;13.02;100.00;102020.84;5184089;28;19925;-74
2023/04/27 07:39:25;;;;;;;;;;;;;;;13.13;100.00;102020.63;5188375;28;19972;-74
2023/04/27 07:41:57;;;;;;;;;;;;;;;13.14;100.00;102022.31;5186071;28;19936;-74
2023/04/27 07:44:27;;;;;;;;;;;;;;;13.33;100.00;102021.34;5185872;28;20290;-74
2023/04/27 07:46:58;;;;;;;;;;;;;;;13.18;100.00;102021.00;5187955;28;19921;-74
2023/04/27 07:49:28;;;;;;;;;;;;;;;13.05;100.00;102007.09;5186240;28;19917;-74
2023/04/27 07:51:58;;;;;;;;;;;;;;;12.89;100.00;102004.22;5185675;28;20263;-75
2023/04/27 07:54:29;;;;;;;;;;;;;;;13.01;100.00;102004.88;5182813;28;20391;-74
2023/04/27 07:57:01;;;;;;;;;;;;;;;13.26;100.00;102000.56;5183629;28;19945;-75
2023/04/27 07:59:31;;;;;;;;;;;;;;;13.68;100.00;102004.25;5187886;28;19926;-75
2023/04/27 08:02:02;;;;;;;;;;;;;;;13.64;100.00;102007.41;5186023;28;20272;-75
2023/04/27 08:04:32;;;;;;;;;;;;;;;14.03;100.00;102006.97;5190722;28;19951;-75
2023/04/27 08:07:02;;;;;;;;;;;;;;;13.97;100.00;102016.56;5190406;28;20362;-74
2023/04/27 08:09:33;;;;;;;;;;;;;;;13.79;100.00;102011.22;5184729;28;19972;-75
2023/04/27 08:12:03;;;;;;;;;;;;;;;13.94;100.00;102009.63;5189653;28;19959;-74
2023/04/27 08:14:34;;;;;;;;;;;;;;;13.70;100.00;102012.16;5186999;28;19975;-74
2023/04/27 08:17:05;;;;;;;;;;;;;;;13.80;100.00;102006.66;5185736;28;20022;-74
2023/04/27 08:19:36;;;;;;;;;;;;;;;14.03;100.00;102007.81;5187756;28;20002;-75
2023/04/27 08:22:09;;;;;;;;;;;;;;;14.21;100.00;102008.59;5181572;28;19925;-74
2023/04/27 08:24:40;;;;;;;;;;;;;;;14.36;100.00;102010.69;5186575;28;20029;-75
2023/04/27 08:27:10;;;;;;;;;;;;;;;14.32;100.00;102001.22;5185233;28;20004;-75
2023/04/27 08:30:00;;;;;;;;;;;;;;;14.52;100.00;101997.25;5185236;28;20454;-75
2023/04/27 08:32:30;;;;;;;;;;;;;;;14.35;100.00;102003.56;5188799;28;19947;-74
2023/04/27 08:35:01;;;;;;;;;;;;;;;14.48;100.00;102004.84;5187481;28;19926;-75
2023/04/27 08:37:31;;;;;;;;;;;;;;;14.43;100.00;101988.25;5186542;28;19913;-74
2023/04/27 08:40:18;;;;;;;;;;;;;;;14.39;100.00;101994.97;5191654;28;19917;-75
2023/04/27 08:43:07;;;;;;;;;;;;;;;14.35;100.00;101990.91;5185221;28;19924;-75
2023/04/27 08:45:38;;;;;;;;;;;;;;;14.43;100.00;101990.13;5186112;28;19918;-75
2023/04/27 08:48:08;;;;;;;;;;;;;;;14.53;100.00;101984.59;5184979;28;19932;-75
2023/04/27 08:50:42;;;;;;;;;;;;;;;14.43;97.60;101999.06;5183857;28;19917;-75
2023/04/27 08:53:29;;;;;;;;;;;;;;;14.64;100.00;101989.69;5186505;28;19922;-75
2023/04/27 08:56:00;;;;;;;;;;;;;;;14.84;100.00;101987.53;5183766;28;20015;-75
2023/04/27 08:58:49;;;;;;;;;;;;;;;14.91;98.48;101991.25;5183269;28;19921;-75
2023/04/27 09:01:21;;;;;;;;;;;;;;;14.15;100.00;101990.31;5192070;28;19964;-75
2023/04/27 09:04:08;;;;;;;;;;;;;;;14.30;96.99;101990.56;5193146;28;19917;-75
2023/04/27 09:06:38;;;;;;;;;;;;;;;14.27;99.86;101992.75;5197043;28;19917;-74
2023/04/27 09:09:10;;;;;;;;;;;;;;;14.11;99.80;101985.44;5192083;28;19932;-75
2023/04/27 09:11:40;;;;;;;;;;;;;;;14.26;96.35;101983.81;5198049;28;19921;-74
2023/04/27 09:14:34;;;;;;;;;;;;;;;14.27;100.00;101992.75;5191281;28;20440;-74
2023/04/27 09:17:04;;;;;;;;;;;;;;;14.22;100.00;101988.69;5188731;28;19917;-75
2023/04/27 09:19:35;;;;;;;;;;;;;;;13.84;100.00;101989.16;5188771;28;19929;-74
2023/04/27 09:22:06;;;;;;;;;;;;;;;13.96;99.20;101982.50;5183759;28;19960;-74
2023/04/27 09:24:37;;;;;;;;;;;;;;;13.99;96.46;101984.88;5186590;28;19933;-74
2023/04/27 09:27:07;;;;;;;;;;;;;;;13.85;91.68;101982.75;5191125;28;20349;-75
2023/04/27 09:29:38;;;;;;;;;;;;;;;13.78;96.68;101977.16;5188681;28;19917;-75
2023/04/27 09:32:19;;;;;;;;;;;;;;;14.10;94.96;101970.25;5190967;28;19955;-75
2023/04/27 09:34:50;;;;;;;;;;;;;;;14.19;96.69;101969.28;5202604;28;20031;-74
2023/04/27 09:37:21;;;;;;;;;;;;;;;14.76;100.00;101962.22;5192421;28;20112;-75
2023/04/27 09:39:51;;;;;;;;;;;;;;;14.80;85.81;101964.56;5186796;28;19924;-74
2023/04/27 09:42:22;;;;;;;;;;;;;;;14.65;91.15;101957.09;5189736;28;19956;-74
2023/04/27 09:44:53;;;;;;;;;;;;;;;14.95;96.88;101961.03;5193423;28;19925;-75
2023/04/27 09:47:23;;;;;;;;;;;;;;;15.27;93.64;101973.72;5186838;28;19991;-75
2023/04/27 09:49:54;;;;;;;;;;;;;;;15.57;87.88;101968.63;5189483;28;19925;-75
2023/04/27 09:52:25;;;;;;;;;;;;;;;14.83;79.99;101970.50;5186081;28;20028;-74
2023/04/27 09:54:57;;;;;;;;;;;;;;;15.32;92.66;101975.06;5186252;28;19932;-75
2023/04/27 09:57:46;;;;;;;;;;;;;;;15.47;86.85;101973.38;5188210;28;19920;-75
2023/04/27 10:00:25;;;;;;;;;;;;;;;15.74;87.39;101967.59;5187386;28;20068;-74
2023/04/27 10:03:06;;;;;;;;;;;;;;;15.51;82.21;101964.75;5190858;28;20381;-75
2023/04/27 10:05:42;;;;;;;;;;;;;;;15.65;80.70;101965.91;5198074;28;20008;-75
2023/04/27 10:08:13;;;;;;;;;;;;;;;15.60;77.61;101964.72;5188504;28;19917;-75
2023/04/27 10:10:58;;;;;;;;;;;;;;;15.67;83.26;101963.91;5185808;28;19917;-74
2023/04/27 10:13:30;;;;;;;;;;;;;;;15.61;71.69;101961.81;5194123;28;19932;-75
2023/04/27 10:16:14;;;;;;;;;;;;;;;15.53;72.66;101956.44;5186302;28;19922;-75
2023/04/27 10:18:55;;;;;;;;;;;;;;;15.26;80.85;101946.84;5188636;28;19921;-75
2023/04/27 10:21:25;;;;;;;;;;;;;;;15.00;71.18;101949.72;5189567;28;19921;-75
2023/04/27 10:24:05;;;;;;;;;;;;;;;15.11;76.70;101943.13;5190524;28;19921;-75
2023/04/27 10:26:44;;;;;;;;;;;;;;;14.57;79.31;101934.66;5188671;28;19921;-75
2023/04/27 10:29:16;;;;;;;;;;;;;;;15.05;80.03;101933.84;5187805;28;19957;-75
2023/04/27 10:31:47;;;;;;;;;;;;;;;14.89;74.32;101936.56;5187368;28;20298;-75
2023/04/27 10:34:20;;;;;;;;;;;;;;;15.27;71.60;101937.75;5194201;28;19917;-75
2023/04/27 10:37:03;;;;;;;;;;;;;;;15.03;71.49;101931.31;5189435;28;20003;-75
2023/04/27 10:39:35;;;;;;;;;;;;;;;15.17;70.31;101943.31;5183750;28;19922;-75
2023/04/27 10:42:05;;;;;;;;;;;;;;;15.09;65.05;101937.06;5186579;28;20661;-74
2023/04/27 10:44:36;;;;;;;;;;;;;;;15.29;70.82;101935.69;5188963;28;19920;-75
2023/04/27 10:47:25;;;;;;;;;;;;;;;14.90;67.33;101922.03;5184375;28;20001;-75
2023/04/27 10:49:58;;;;;;;;;;;;;;;14.93;69.38;101913.59;5184323;28;19956;-75
2023/04/27 10:52:29;;;;;;;;;;;;;;;15.19;81.67;101916.09;5184350;28;20013;-75
2023/04/27 10:55:12;;;;;;;;;;;;;;;15.45;77.02;101918.59;5190543;28;20441;-75
2023/04/27 10:58:01;;;;;;;;;;;;;;;15.55;71.28;101916.53;5187134;28;19964;-75
2023/04/27 11:00:33;;;;;;;;;;;;;;;15.09;72.89;101904.63;5194342;28;20333;-75
2023/04/27 11:03:15;;;;;;;;;;;;;;;13.97;88.84;101901.41;5182002;28;21729;-75
2023/04/27 11:05:47;;;;;;;;;;;;;;;13.88;86.54;101909.63;5189081;28;19960;-75
2023/04/27 11:08:18;;;;;;;;;;;;;;;13.88;85.06;101896.97;5188265;28;19972;-75
2023/04/27 11:10:49;;;;;;;;;;;;;;;14.44;81.24;101892.75;5182702;28;20898;-75
2023/04/27 11:13:21;;;;;;;;;;;;;;;14.37;73.72;101886.34;5194352;28;20424;-75
2023/04/27 11:15:53;;;;;;;;;;;;;;;14.22;71.80;101885.28;5181266;28;19925;-75
2023/04/27 11:18:25;;;;;;;;;;;;;;;14.29;67.51;101891.69;5191119;28;20286;-75
2023/04/27 11:21:14;;;;;;;;;;;;;;;14.56;72.27;101887.03;5183753;28;19984;-75
2023/04/27 11:23:44;;;;;;;;;;;;;;;14.67;71.42;101898.38;5190062;28;20392;-75
2023/04/27 11:26:16;;;;;;;;;;;;;;;14.71;70.98;101883.53;5190223;28;19960;-75
2023/04/27 11:28:57;;;;;;;;;;;;;;;14.35;74.56;101885.63;5188000;28;19918;-75
2023/04/27 11:31:37;;;;;;;;;;;;;;;14.48;76.18;101879.78;5184199;28;19944;-75
2023/04/27 11:34:08;;;;;;;;;;;;;;;15.04;80.08;101883.53;5190287;28;19964;-75
2023/04/27 11:36:38;;;;;;;;;;;;;;;15.01;74.79;101883.88;5182043;28;20000;-75
2023/04/27 11:39:28;;;;;;;;;;;;;;;14.97;73.66;101896.03;5185346;28;20035;-75
2023/04/27 11:42:13;;;;;;;;;;;;;;;15.08;70.88;101892.13;5184919;28;20266;-75
2023/04/27 11:44:55;;;;;;;;;;;;;;;14.93;68.06;101889.28;5193634;28;20397;-75
2023/04/27 11:47:26;;;;;;;;;;;;;;;15.16;74.45;101892.97;5183280;28;19948;-75
2023/04/27 11:49:58;;;;;;;;;;;;;;;15.35;73.58;101880.09;5185162;28;19921;-75
2023/04/27 11:52:31;;;;;;;;;;;;;;;15.50;80.61;101878.34;5188642;28;19975;-75
2023/04/27 11:55:03;;;;;;;;;;;;;;;15.10;73.82;101876.59;5189221;28;19917;-75
2023/04/27 11:57:35;;;;;;;;;;;;;;;14.68;69.72;101886.56;5187551;28;19964;-75
2023/04/27 12:00:09;;;;;;;;;;;;;;;14.50;70.64;101884.00;5184037;28;19972;-75
2023/04/27 12:02:40;;;;;;;;;;;;;;;14.80;73.29;101875.41;5184110;28;20382;-76
2023/04/27 12:05:11;;;;;;;;;;;;;;;15.22;73.08;101875.22;5192369;28;20015;-75
2023/04/27 12:07:42;;;;;;;;;;;;;;;15.39;70.93;101862.50;5183043;28;19968;-75
2023/04/27 12:10:12;;;;;;;;;;;;;;;15.31;69.11;101870.63;5190736;28;19913;-75
2023/04/27 12:12:42;;;;;;;;;;;;;;;15.48;70.06;101869.59;5183615;28;19924;-75
2023/04/27 12:15:13;;;;;;;;;;;;;;;15.51;66.60;101858.41;5187219;28;19943;-75
2023/04/27 12:17:43;;;;;;;;;;;;;;;15.76;79.52;101853.78;5188186;28;20036;-75
2023/04/27 12:20:14;;;;;;;;;;;;;;;15.43;67.92;101858.44;5187054;28;19921;-75
2023/04/27 12:22:44;;;;;;;;;;;;;;;15.45;64.31;101842.88;5190570;28;19917;-75
2023/04/27 12:25:16;;;;;;;;;;;;;;;16.03;70.32;101839.78;5188335;28;20003;-75
2023/04/27 12:27:47;;;;;;;;;;;;;;;15.89;68.99;101845.09;5187183;28;20341;-75
2023/04/27 12:30:17;;;;;;;;;;;;;;;15.54;64.38;101849.94;5186333;28;19921;-75
2023/04/27 12:32:47;;;;;;;;;;;;;;;15.58;61.50;101854.00;5192115;28;20008;-75
2023/04/27 12:35:18;;;;;;;;;;;;;;;15.41;54.38;101846.94;5190044;28;20011;-75
2023/04/27 12:37:48;;;;;;;;;;;;;;;15.65;63.46;101844.19;5197635;28;20016;-75
2023/04/27 12:40:19;;;;;;;;;;;;;;;15.64;55.93;101847.91;5188857;28;19917;-75
2023/04/27 12:42:50;;;;;;;;;;;;;;;15.46;55.84;101844.56;5189123;28;20000;-74
2023/04/27 12:45:20;;;;;;;;;;;;;;;15.47;57.86;101843.56;5190935;28;20374;-75
2023/04/27 12:47:52;;;;;;;;;;;;;;;15.67;68.57;101825.94;5186021;28;19925;-75
2023/04/27 12:50:22;;;;;;;;;;;;;;;15.75;57.62;101820.47;5188063;28;19917;-75
2023/04/27 12:52:53;;;;;;;;;;;;;;;16.01;60.45;101825.59;5190480;28;19932;-75
2023/04/27 12:55:23;;;;;;;;;;;;;;;15.76;55.48;101827.59;5194526;28;19918;-75
2023/04/27 12:57:56;;;;;;;;;;;;;;;15.71;53.48;101821.00;5192392;28;19925;-75
2023/04/27 13:00:28;;;;;;;;;;;;;;;15.60;57.01;101821.38;5193126;28;19925;-75